Time;durP1;ratioP1;P1;durP2;ratioP2;P2;SDS_P1;SDS_P2;PMS_P1;PMS_P2;Temp;Humidity;BMP_temperature;BMP_pressure;BME280_temperature;BME280_humidity;BME280_pressure;Samples;Min_cycle;Max_cycle;Signal;HPM_P1;HPM_P2
2023/04/28 00:00:17;;;;;;;10.37;1.43;;;5.30;99.90;;;;;;5046427;28;20229;-84
2023/04/28 00:02:44;;;;;;;0.80;0.80;;;5.30;99.90;;;;;;5042142;28;20217;-84
2023/04/28 00:05:11;;;;;;;1.43;1.33;;;5.40;99.90;;;;;;5051320;28;20186;-84
2023/04/28 00:07:36;;;;;;;0.47;0.47;;;5.40;99.90;;;;;;5048155;28;20631;-84
2023/04/28 00:10:02;;;;;;;1.70;1.60;;;5.40;99.90;;;;;;5048846;28;20245;-84
2023/04/28 00:12:28;;;;;;;0.80;0.80;;;5.40;99.90;;;;;;5042127;28;20232;-84
2023/04/28 00:14:54;;;;;;;1.23;1.13;;;5.50;99.90;;;;;;5049259;28;20221;-84
2023/04/28 00:17:19;;;;;;;0.93;0.93;;;5.50;99.90;;;;;;5051370;27;20702;-84
2023/04/28 00:19:45;;;;;;;1.37;1.07;;;5.50;99.90;;;;;;5049486;28;20659;-84
2023/04/28 00:22:11;;;;;;;4.03;1.33;;;5.50;99.90;;;;;;5050712;28;20221;-84
2023/04/28 00:24:36;;;;;;;1.87;1.77;;;5.60;99.90;;;;;;5052929;28;20220;-83
2023/04/28 00:27:02;;;;;;;0.93;0.73;;;5.60;99.90;;;;;;5047116;28;20226;-84
2023/04/28 00:29:28;;;;;;;1.00;1.00;;;5.60;99.90;;;;;;5049867;27;20224;-83
2023/04/28 00:31:54;;;;;;;1.83;1.73;;;5.70;99.90;;;;;;5052728;28;20227;-84
2023/04/28 00:34:20;;;;;;;2.27;0.93;;;5.70;99.90;;;;;;5048984;27;20927;-84
2023/04/28 00:36:46;;;;;;;0.77;0.77;;;5.70;99.90;;;;;;5046390;28;20221;-84
2023/04/28 00:39:11;;;;;;;1.07;1.07;;;5.70;99.90;;;;;;5051194;28;20320;-83
2023/04/28 00:41:37;;;;;;;2.07;1.87;;;5.70;99.90;;;;;;5081560;27;20752;-84
2023/04/28 00:44:03;;;;;;;1.13;1.03;;;5.70;99.90;;;;;;5041153;28;20212;-84
2023/04/28 00:46:31;;;;;;;1.57;1.47;;;5.70;99.90;;;;;;5049645;28;20288;-83
2023/04/28 00:48:57;;;;;;;1.53;1.43;;;5.70;99.90;;;;;;5049008;28;20639;-84
2023/04/28 00:51:23;;;;;;;0.57;0.57;;;5.70;99.90;;;;;;5048119;27;20249;-84
2023/04/28 00:53:50;;;;;;;1.30;1.23;;;5.60;99.90;;;;;;5046877;28;20332;-84
2023/04/28 00:56:16;;;;;;;0.90;0.90;;;5.60;99.90;;;;;;5049709;27;20197;-84
2023/04/28 00:58:42;;;;;;;2.23;2.13;;;5.60;99.90;;;;;;5048812;28;20184;-83
2023/04/28 01:01:09;;;;;;;1.33;1.23;;;5.60;99.90;;;;;;5050025;28;20244;-84
2023/04/28 01:03:37;;;;;;;0.93;0.90;;;5.60;99.90;;;;;;5049670;28;20228;-84
2023/04/28 01:06:04;;;;;;;2.50;2.33;;;5.60;99.90;;;;;;5049538;28;20298;-85
2023/04/28 01:08:31;;;;;;;2.60;1.90;;;5.60;99.90;;;;;;5050367;28;20228;-84
2023/04/28 01:10:57;;;;;;;0.67;0.67;;;5.60;99.90;;;;;;5048923;28;20645;-84
2023/04/28 01:13:23;;;;;;;0.60;0.60;;;5.70;99.90;;;;;;5052211;27;20222;-84
2023/04/28 01:15:49;;;;;;;2.07;1.30;;;5.70;99.90;;;;;;5050186;27;20217;-84
2023/04/28 01:18:15;;;;;;;2.60;2.10;;;5.80;99.90;;;;;;5047756;28;20228;-84
2023/04/28 01:20:41;;;;;;;2.27;2.07;;;5.80;99.90;;;;;;5050034;28;20299;-84
2023/04/28 01:23:11;;;;;;;1.57;1.47;;;5.80;99.90;;;;;;5047963;28;20190;-84
2023/04/28 01:25:37;;;;;;;2.30;2.20;;;5.80;99.90;;;;;;5053318;28;20664;-83
2023/04/28 01:28:03;;;;;;;1.17;1.17;;;5.80;99.90;;;;;;5047890;28;20240;-85
2023/04/28 01:30:29;;;;;;;2.53;2.33;;;5.80;99.90;;;;;;5048317;28;20694;-84
2023/04/28 01:32:55;;;;;;;1.20;1.10;;;5.80;99.90;;;;;;5066948;28;20320;-84
2023/04/28 01:35:21;;;;;;;1.90;1.80;;;5.80;99.90;;;;;;5048753;28;20194;-84
2023/04/28 01:37:46;;;;;;;2.07;1.40;;;5.80;99.90;;;;;;5049733;28;20197;-84
2023/04/28 01:40:12;;;;;;;0.87;0.87;;;5.80;99.90;;;;;;5047703;28;20229;-84
2023/04/28 01:42:38;;;;;;;1.30;1.20;;;5.80;99.90;;;;;;5039384;28;20218;-83
2023/04/28 01:45:04;;;;;;;2.33;2.17;;;5.80;99.90;;;;;;5047256;28;20274;-84
2023/04/28 01:47:30;;;;;;;1.77;1.37;;;5.70;99.90;;;;;;5049459;28;20237;-83
2023/04/28 01:49:56;;;;;;;2.13;1.23;;;5.70;99.90;;;;;;5051264;28;21093;-84
2023/04/28 01:52:23;;;;;;;2.87;1.53;;;5.70;99.90;;;;;;5048975;27;20606;-83
2023/04/28 01:54:49;;;;;;;1.50;1.40;;;5.70;99.90;;;;;;5040873;28;20232;-83
2023/04/28 01:57:15;;;;;;;3.53;2.27;;;5.70;99.90;;;;;;5052444;27;20312;-83
2023/04/28 01:59:41;;;;;;;2.73;2.53;;;5.70;99.90;;;;;;5048429;28;20213;-84
2023/04/28 02:02:07;;;;;;;1.43;1.33;;;5.80;99.90;;;;;;5049195;28;20255;-84
2023/04/28 02:04:33;;;;;;;1.53;1.43;;;5.80;99.90;;;;;;5049598;28;20248;-84
2023/04/28 02:06:58;;;;;;;1.77;1.73;;;5.80;99.90;;;;;;5049599;28;20233;-83
2023/04/28 02:09:24;;;;;;;1.50;1.47;;;5.80;99.90;;;;;;5048750;28;20222;-84
2023/04/28 02:11:50;;;;;;;0.87;0.87;;;5.80;99.90;;;;;;5040267;28;20293;-84
2023/04/28 02:14:16;;;;;;;1.63;1.53;;;5.80;99.90;;;;;;5049631;27;20186;-84
2023/04/28 02:16:41;;;;;;;6.07;1.80;;;5.90;99.90;;;;;;5053165;28;20194;-84
2023/04/28 02:19:07;;;;;;;1.00;0.63;;;5.90;99.90;;;;;;5051047;28;20283;-84
2023/04/28 02:21:33;;;;;;;0.60;0.60;;;5.90;99.90;;;;;;5050200;27;20234;-84
2023/04/28 02:23:59;;;;;;;0.87;0.87;;;5.90;99.90;;;;;;5050941;27;20225;-84
2023/04/28 02:26:24;;;;;;;1.67;1.57;;;5.90;99.90;;;;;;5054002;28;20225;-83
2023/04/28 02:28:50;;;;;;;1.13;1.13;;;5.90;99.90;;;;;;5045080;28;20186;-84
2023/04/28 02:31:16;;;;;;;1.00;0.93;;;5.90;99.90;;;;;;5050974;28;20313;-84
2023/04/28 02:33:42;;;;;;;1.40;1.30;;;5.90;99.90;;;;;;5052457;28;20223;-83
2023/04/28 02:36:08;;;;;;;0.83;0.83;;;5.90;99.90;;;;;;5053861;28;20233;-84
2023/04/28 02:38:34;;;;;;;1.27;1.17;;;5.90;99.90;;;;;;5052575;28;21003;-84
2023/04/28 02:41:01;;;;;;;1.60;1.37;;;5.90;99.90;;;;;;5052948;28;20185;-84
2023/04/28 02:43:30;;;;;;;7.80;1.87;;;5.90;99.90;;;;;;5052828;28;20723;-84
2023/04/28 02:45:56;;;;;;;1.17;0.80;;;5.90;99.90;;;;;;5051183;28;20213;-84
2023/04/28 02:48:23;;;;;;;2.23;1.43;;;5.90;99.90;;;;;;5048332;28;20221;-84
2023/04/28 02:50:49;;;;;;;3.47;3.17;;;5.90;99.90;;;;;;5053699;28;20722;-85
2023/04/28 02:53:15;;;;;;;0.43;0.43;;;6.00;99.90;;;;;;5048728;28;20247;-83
2023/04/28 02:55:41;;;;;;;8.47;2.10;;;5.90;99.90;;;;;;5050764;28;20178;-84
2023/04/28 02:58:07;;;;;;;1.10;0.87;;;6.00;99.90;;;;;;5051632;27;20236;-84
2023/04/28 03:00:33;;;;;;;0.60;0.60;;;6.00;99.90;;;;;;5043178;28;20226;-84
2023/04/28 03:02:58;;;;;;;2.00;1.47;;;6.00;99.90;;;;;;5070803;28;20580;-84
2023/04/28 03:05:24;;;;;;;2.20;1.60;;;6.00;99.90;;;;;;5050957;28;20190;-84
2023/04/28 03:07:51;;;;;;;1.30;1.20;;;6.00;99.90;;;;;;5051523;28;20220;-84
2023/04/28 03:10:17;;;;;;;2.33;2.13;;;6.00;99.90;;;;;;5049254;28;20763;-83
2023/04/28 03:12:42;;;;;;;3.43;1.93;;;6.00;99.90;;;;;;5048066;28;20226;-84
2023/04/28 03:15:08;;;;;;;2.03;1.50;;;6.00;99.90;;;;;;5049235;28;20590;-84
2023/04/28 03:17:40;;;;;;;2.33;1.47;;;6.00;99.90;;;;;;5048604;28;20229;-84
2023/04/28 03:20:07;;;;;;;1.40;1.33;;;6.00;99.90;;;;;;5042492;28;20284;-84
2023/04/28 03:22:34;;;;;;;2.07;1.97;;;6.00;99.90;;;;;;5050645;28;20268;-85
2023/04/28 03:24:59;;;;;;;0.47;0.47;;;6.00;99.90;;;;;;5051009;28;20616;-84
2023/04/28 03:27:25;;;;;;;1.57;1.43;;;6.00;99.90;;;;;;5050708;28;20230;-84
2023/04/28 03:29:51;;;;;;;3.67;2.40;;;6.00;99.90;;;;;;5046584;28;20218;-84
2023/04/28 03:32:17;;;;;;;1.97;1.67;;;6.00;99.90;;;;;;5050082;27;20193;-85
2023/04/28 03:34:43;;;;;;;2.20;2.10;;;6.00;99.90;;;;;;5045529;28;20286;-84
2023/04/28 03:37:08;;;;;;;2.67;1.57;;;6.00;99.90;;;;;;5033140;28;20228;-84
2023/04/28 03:39:34;;;;;;;1.73;1.60;;;6.00;99.90;;;;;;5050596;28;20220;-84
2023/04/28 03:42:00;;;;;;;1.10;1.00;;;6.10;99.90;;;;;;5048673;27;20370;-84
2023/04/28 03:44:25;;;;;;;0.77;0.77;;;6.00;99.90;;;;;;5040717;28;20251;-84
2023/04/28 03:46:51;;;;;;;1.73;1.60;;;6.10;99.90;;;;;;5051678;28;20225;-84
2023/04/28 03:49:17;;;;;;;4.00;2.77;;;6.10;99.90;;;;;;5052410;27;20837;-84
2023/04/28 03:51:43;;;;;;;1.60;1.57;;;6.20;99.90;;;;;;5050640;28;20224;-84
2023/04/28 03:54:08;;;;;;;1.57;1.23;;;6.20;99.90;;;;;;5039519;28;20279;-84
2023/04/28 03:56:34;;;;;;;2.20;2.10;;;6.20;99.90;;;;;;5048568;28;20221;-84
2023/04/28 03:59:00;;;;;;;1.63;1.63;;;6.20;99.90;;;;;;5041533;28;20229;-84
2023/04/28 04:01:26;;;;;;;2.23;2.03;;;6.30;99.90;;;;;;5049214;28;20224;-84
2023/04/28 04:03:52;;;;;;;2.43;1.97;;;6.30;99.90;;;;;;5040035;28;20218;-83
2023/04/28 04:06:18;;;;;;;2.00;1.83;;;6.30;99.90;;;;;;5050380;28;20446;-83
2023/04/28 04:08:44;;;;;;;4.53;2.10;;;6.40;99.90;;;;;;5047876;28;20666;-84
2023/04/28 04:11:10;;;;;;;2.03;1.93;;;6.40;99.90;;;;;;5040077;28;20287;-84
2023/04/28 04:13:35;;;;;;;1.60;1.50;;;6.40;99.90;;;;;;5040882;28;20220;-83
2023/04/28 04:16:01;;;;;;;2.73;1.77;;;6.40;99.90;;;;;;5046567;28;20754;-84
2023/04/28 04:18:27;;;;;;;4.53;2.43;;;6.40;99.90;;;;;;5040162;28;21090;-84
2023/04/28 04:20:54;;;;;;;3.53;3.00;;;6.50;99.90;;;;;;5047989;28;20248;-85
2023/04/28 04:23:23;;;;;;;1.97;1.83;;;6.50;99.90;;;;;;5047864;28;20718;-83
2023/04/28 04:25:49;;;;;;;3.60;3.17;;;6.50;99.90;;;;;;5047182;28;20215;-84
2023/04/28 04:28:15;;;;;;;3.03;1.33;;;6.60;99.90;;;;;;5047343;28;21004;-84
2023/04/28 04:30:41;;;;;;;1.33;0.83;;;6.60;99.90;;;;;;5046317;27;20228;-84
2023/04/28 04:33:07;;;;;;;2.13;1.73;;;6.60;99.90;;;;;;5049167;28;20247;-84
2023/04/28 04:35:33;;;;;;;2.00;1.57;;;6.70;99.90;;;;;;5035627;28;20709;-84
2023/04/28 04:38:00;;;;;;;4.00;2.77;;;6.70;99.90;;;;;;5050615;28;20198;-84
2023/04/28 04:40:26;;;;;;;1.67;1.57;;;6.70;99.90;;;;;;5040293;28;20210;-84
2023/04/28 04:42:51;;;;;;;3.57;3.23;;;6.80;99.90;;;;;;5056679;28;20634;-84
2023/04/28 04:45:17;;;;;;;3.20;2.83;;;6.80;99.90;;;;;;5044467;28;20287;-85
2023/04/28 04:47:43;;;;;;;3.20;2.63;;;6.80;99.90;;;;;;5050428;28;20283;-85
2023/04/28 04:50:10;;;;;;;2.40;2.20;;;6.80;99.90;;;;;;5048553;27;20189;-84
2023/04/28 04:52:36;;;;;;;10.13;2.00;;;6.80;99.90;;;;;;5048462;28;20194;-84
2023/04/28 04:55:02;;;;;;;1.50;1.40;;;6.90;99.90;;;;;;5051483;28;20270;-84
2023/04/28 04:57:28;;;;;;;1.87;1.77;;;6.90;99.90;;;;;;5049538;28;20590;-84
2023/04/28 04:59:53;;;;;;;5.57;3.67;;;6.90;99.90;;;;;;5049239;28;20239;-84
2023/04/28 05:02:19;;;;;;;2.40;1.00;;;6.90;99.90;;;;;;5050906;27;20185;-85
2023/04/28 05:04:45;;;;;;;5.53;2.37;;;6.90;99.90;;;;;;5050118;28;20550;-84
2023/04/28 05:07:11;;;;;;;3.63;2.90;;;6.90;99.90;;;;;;5049524;28;20320;-84
2023/04/28 05:09:37;;;;;;;3.73;2.97;;;6.90;99.90;;;;;;5048334;28;21121;-83
2023/04/28 05:12:03;;;;;;;2.43;2.13;;;6.90;99.90;;;;;;5047094;27;20221;-84
2023/04/28 05:14:29;;;;;;;7.23;2.23;;;6.90;99.90;;;;;;5048122;27;20280;-84
2023/04/28 05:16:56;;;;;;;3.03;2.83;;;6.90;99.90;;;;;;5048041;28;20190;-85
2023/04/28 05:19:23;;;;;;;2.17;1.93;;;6.90;99.90;;;;;;5048328;27;20228;-85
2023/04/28 05:21:51;;;;;;;1.30;1.20;;;6.90;99.90;;;;;;5043242;28;20241;-85
2023/04/28 05:24:17;;;;;;;4.67;3.00;;;6.90;99.90;;;;;;5041659;28;20226;-84
2023/04/28 05:26:42;;;;;;;1.93;1.77;;;6.90;99.90;;;;;;5040715;28;20961;-84
2023/04/28 05:29:08;;;;;;;4.70;2.20;;;6.90;99.90;;;;;;5047106;28;20946;-84
2023/04/28 05:31:34;;;;;;;3.70;2.33;;;7.00;99.90;;;;;;5049162;28;20737;-84
2023/04/28 05:34:00;;;;;;;3.10;2.90;;;7.00;99.90;;;;;;5045307;28;20683;-84
2023/04/28 05:36:26;;;;;;;3.73;3.40;;;7.00;99.90;;;;;;5037328;28;20621;-84
2023/04/28 05:38:52;;;;;;;3.87;2.07;;;7.00;99.90;;;;;;5041494;28;20225;-85
2023/04/28 05:41:17;;;;;;;3.77;2.60;;;7.00;99.90;;;;;;5056210;27;20722;-84
2023/04/28 05:43:43;;;;;;;3.30;3.10;;;7.10;99.90;;;;;;5040164;28;20197;-85
2023/04/28 05:46:09;;;;;;;4.17;2.60;;;7.10;99.90;;;;;;5047090;28;20295;-85
2023/04/28 05:48:34;;;;;;;6.17;5.63;;;7.10;99.90;;;;;;5051373;28;20214;-83
2023/04/28 05:51:00;;;;;;;3.00;2.80;;;7.10;99.90;;;;;;5051082;28;20237;-84
2023/04/28 05:53:26;;;;;;;2.77;2.10;;;7.10;99.90;;;;;;5056905;28;20204;-83
2023/04/28 05:55:52;;;;;;;3.97;3.60;;;7.10;99.90;;;;;;5062035;28;20220;-84
2023/04/28 05:58:17;;;;;;;2.60;2.40;;;7.10;99.90;;;;;;5042173;28;20226;-84
2023/04/28 06:00:43;;;;;;;2.20;1.90;;;7.20;99.90;;;;;;5045606;28;20675;-84
2023/04/28 06:03:10;;;;;;;3.90;1.67;;;7.20;99.90;;;;;;5041570;28;20226;-85
2023/04/28 06:05:36;;;;;;;5.80;1.40;;;7.20;99.90;;;;;;5042964;28;20229;-85
2023/04/28 06:08:02;;;;;;;5.57;4.10;;;7.20;99.90;;;;;;5046659;28;20225;-85
2023/04/28 06:10:28;;;;;;;2.53;1.70;;;7.20;99.90;;;;;;5053970;27;20761;-84
2023/04/28 06:12:54;;;;;;;1.73;1.63;;;7.20;99.90;;;;;;5050629;28;20213;-84
2023/04/28 06:15:20;;;;;;;18.07;2.63;;;7.20;99.90;;;;;;5045688;28;20218;-85
2023/04/28 06:17:46;;;;;;;0.90;0.90;;;7.20;99.90;;;;;;5048830;28;20217;-84
2023/04/28 06:20:12;;;;;;;3.43;3.13;;;7.20;99.90;;;;;;5048564;27;20200;-84
2023/04/28 06:22:40;;;;;;;2.53;2.33;;;7.30;99.90;;;;;;5051801;28;20318;-84
2023/04/28 06:25:06;;;;;;;8.53;3.10;;;7.40;99.90;;;;;;5052608;28;20210;-84
2023/04/28 06:27:32;;;;;;;1.37;1.37;;;7.50;99.90;;;;;;5050938;28;20282;-84
2023/04/28 06:29:58;;;;;;;1.73;1.53;;;7.50;99.90;;;;;;5049080;28;21024;-84
2023/04/28 06:32:24;;;;;;;4.50;3.77;;;7.40;99.90;;;;;;5052029;28;20221;-84
2023/04/28 06:34:49;;;;;;;3.10;1.30;;;7.40;99.90;;;;;;5051422;28;20198;-85
2023/04/28 06:37:15;;;;;;;3.57;3.00;;;7.40;99.90;;;;;;5044457;28;20227;-85
2023/04/28 06:39:41;;;;;;;3.40;3.20;;;7.50;99.90;;;;;;5043351;28;20662;-85
2023/04/28 06:42:07;;;;;;;2.00;1.90;;;7.40;99.90;;;;;;5054659;27;20225;-86
2023/04/28 06:44:33;;;;;;;2.87;1.83;;;7.40;99.90;;;;;;5051849;28;20218;-84
2023/04/28 06:46:58;;;;;;;8.20;2.83;;;7.40;99.90;;;;;;5044976;28;20220;-83
2023/04/28 06:49:24;;;;;;;2.27;1.97;;;7.40;99.90;;;;;;5052788;28;20241;-84
2023/04/28 06:51:50;;;;;;;1.47;1.47;;;7.40;99.90;;;;;;5054342;28;20253;-84
2023/04/28 06:54:17;;;;;;;3.83;2.03;;;7.40;99.90;;;;;;5053821;27;20228;-86
2023/04/28 06:56:42;;;;;;;5.33;3.80;;;7.50;99.90;;;;;;5053608;28;20759;-85
2023/04/28 06:59:08;;;;;;;3.23;1.77;;;7.50;99.90;;;;;;5055503;28;20194;-82
2023/04/28 07:01:34;;;;;;;4.97;3.13;;;7.60;99.90;;;;;;5057441;28;20228;-85
2023/04/28 07:04:00;;;;;;;2.60;2.40;;;7.60;99.90;;;;;;5052991;28;20245;-85
2023/04/28 07:06:26;;;;;;;7.73;1.97;;;7.60;99.90;;;;;;5059695;28;20240;-84
2023/04/28 07:08:52;;;;;;;2.13;2.03;;;7.70;99.90;;;;;;5050103;28;20267;-85
2023/04/28 07:11:18;;;;;;;5.03;2.70;;;7.70;99.90;;;;;;5051362;28;20232;-84
2023/04/28 07:13:48;;;;;;;3.53;2.77;;;7.80;99.90;;;;;;5041766;28;20272;-85
2023/04/28 07:16:14;;;;;;;1.63;1.53;;;7.80;99.90;;;;;;5039725;28;20216;-85
2023/04/28 07:18:42;;;;;;;4.07;3.77;;;7.80;99.90;;;;;;5041629;28;20213;-85
2023/04/28 07:21:18;;;;;;;3.80;2.70;;;7.80;99.90;;;;;;5049535;28;20217;-85
2023/04/28 07:24:04;;;;;;;6.50;2.77;;;7.90;99.90;;;;;;5048081;28;21138;-86
2023/04/28 07:26:32;;;;;;;5.00;3.10;;;7.90;99.90;;;;;;5038395;28;20230;-85
2023/04/28 07:28:57;;;;;;;7.10;2.60;;;7.80;99.90;;;;;;5053389;28;21052;-83
2023/04/28 07:31:23;;;;;;;3.73;3.40;;;7.80;99.90;;;;;;5054944;27;20222;-84
2023/04/28 07:33:49;;;;;;;3.43;2.23;;;7.80;99.90;;;;;;5048554;28;20210;-84
2023/04/28 07:36:15;;;;;;;3.40;2.53;;;7.70;99.90;;;;;;5042276;28;20217;-86
2023/04/28 07:38:40;;;;;;;2.83;2.63;;;7.60;99.90;;;;;;5041987;28;20231;-86
2023/04/28 07:41:06;;;;;;;4.03;1.70;;;7.50;99.90;;;;;;5051269;28;20229;-85
2023/04/28 07:43:32;;;;;;;1.70;1.60;;;7.50;99.90;;;;;;5049808;28;20224;-86
2023/04/28 07:45:58;;;;;;;2.87;2.67;;;7.50;99.90;;;;;;5053040;28;20710;-84
2023/04/28 07:48:23;;;;;;;8.13;3.17;;;7.50;99.90;;;;;;5053979;28;20241;-85
2023/04/28 07:50:49;;;;;;;1.47;1.37;;;7.50;99.90;;;;;;5054021;28;20253;-84
2023/04/28 07:53:15;;;;;;;2.40;2.23;;;7.50;99.90;;;;;;5051704;28;20297;-84
2023/04/28 07:55:42;;;;;;;3.20;1.97;;;7.60;99.90;;;;;;5055408;28;20631;-82
2023/04/28 07:58:08;;;;;;;3.53;3.23;;;7.60;99.90;;;;;;5047915;27;20718;-84
2023/04/28 08:00:33;;;;;;;2.20;2.00;;;7.70;99.90;;;;;;5055966;28;20221;-83
2023/04/28 08:02:59;;;;;;;3.57;2.00;;;7.70;99.90;;;;;;5042851;28;20737;-82
2023/04/28 08:05:25;;;;;;;1.20;1.17;;;7.80;99.90;;;;;;5048898;28;20212;-82
2023/04/28 08:07:50;;;;;;;2.97;2.60;;;7.90;99.90;;;;;;5033982;28;20625;-82
2023/04/28 08:10:17;;;;;;;3.80;2.23;;;8.00;99.90;;;;;;5044527;28;20633;-82
2023/04/28 08:12:44;;;;;;;1.57;1.30;;;8.00;99.90;;;;;;5047976;28;20363;-83
2023/04/28 08:15:10;;;;;;;2.63;2.07;;;8.10;99.90;;;;;;5051120;27;20224;-85
2023/04/28 08:17:36;;;;;;;2.43;2.20;;;8.20;99.90;;;;;;5053395;28;20379;-84
2023/04/28 08:20:04;;;;;;;3.10;2.83;;;8.40;99.90;;;;;;5052974;28;20194;-86
2023/04/28 08:22:30;;;;;;;2.60;2.40;;;8.50;99.90;;;;;;5055134;27;20229;-87
2023/04/28 08:24:56;;;;;;;3.47;2.87;;;8.50;99.90;;;;;;5052651;28;20221;-84
2023/04/28 08:27:22;;;;;;;4.80;3.63;;;8.50;99.90;;;;;;5043236;28;20233;-85
2023/04/28 08:29:48;;;;;;;3.37;3.07;;;8.60;99.90;;;;;;5053280;28;20233;-84
2023/04/28 08:32:14;;;;;;;2.87;2.07;;;8.80;99.90;;;;;;5053176;28;20566;-84
2023/04/28 08:34:40;;;;;;;3.00;2.67;;;8.80;99.90;;;;;;5053187;28;20193;-84
2023/04/28 08:37:06;;;;;;;2.53;2.33;;;8.80;99.90;;;;;;5052309;28;20921;-84
2023/04/28 08:39:33;;;;;;;4.63;2.00;;;8.80;99.90;;;;;;5047529;28;20221;-84
2023/04/28 08:41:58;;;;;;;3.50;2.97;;;8.70;99.90;;;;;;5044362;28;20275;-86
2023/04/28 08:44:25;;;;;;;3.90;3.07;;;8.60;99.90;;;;;;5053632;27;20198;-84
2023/04/28 08:46:55;;;;;;;8.93;2.63;;;8.60;99.90;;;;;;5054140;28;21190;-84
2023/04/28 08:49:26;;;;;;;4.23;3.93;;;8.50;99.90;;;;;;5052032;27;20340;-85
2023/04/28 08:51:58;;;;;;;2.57;1.77;;;8.60;99.90;;;;;;5051345;28;20409;-85
2023/04/28 08:54:29;;;;;;;6.33;3.43;;;8.50;99.90;;;;;;5052557;28;20761;-84
2023/04/28 08:56:56;;;;;;;3.30;2.53;;;8.50;99.90;;;;;;5050665;28;20237;-85
2023/04/28 08:59:21;;;;;;;5.50;2.97;;;8.50;99.90;;;;;;5055204;27;20271;-84
2023/04/28 09:01:49;;;;;;;4.57;3.50;;;8.60;99.90;;;;;;5054256;28;20209;-85
2023/04/28 09:04:17;;;;;;;4.63;3.00;;;8.70;99.90;;;;;;5053962;27;20228;-85
2023/04/28 09:06:45;;;;;;;3.23;2.60;;;8.90;99.90;;;;;;5054265;28;20240;-84
2023/04/28 09:09:30;;;;;;;3.73;3.20;;;9.00;99.90;;;;;;5053987;27;20227;-83
2023/04/28 09:11:59;;;;;;;4.20;3.13;;;9.10;99.90;;;;;;5054075;28;21097;-87
2023/04/28 09:14:29;;;;;;;6.07;2.97;;;9.20;99.90;;;;;;5053013;28;20193;-83
2023/04/28 09:16:56;;;;;;;2.73;2.47;;;9.20;99.90;;;;;;5052493;28;20283;-86
2023/04/28 09:19:21;;;;;;;10.10;3.23;;;9.30;99.90;;;;;;5053163;27;20225;-86
2023/04/28 09:21:54;;;;;;;6.60;4.93;;;9.30;99.90;;;;;;5054081;28;20331;-83
2023/04/28 09:24:35;;;;;;;3.60;3.20;;;9.40;99.90;;;;;;5056134;28;20785;-86
2023/04/28 09:27:03;;;;;;;3.93;3.37;;;9.30;99.90;;;;;;5060090;28;20237;-85
2023/04/28 09:29:30;;;;;;;4.03;3.57;;;9.40;99.90;;;;;;5074126;28;20217;-85
2023/04/28 09:32:14;;;;;;;4.57;3.30;;;9.50;99.90;;;;;;5058325;28;20189;-84
2023/04/28 09:34:55;;;;;;;4.80;2.67;;;9.70;99.90;;;;;;5060742;28;20228;-85
2023/04/28 09:37:24;;;;;;;5.63;2.67;;;9.80;99.90;;;;;;5060461;27;20266;-84
2023/04/28 09:39:52;;;;;;;3.30;2.53;;;9.80;99.90;;;;;;5060240;28;20220;-83
2023/04/28 09:42:34;;;;;;;7.53;3.03;;;9.90;99.90;;;;;;5058129;28;20993;-86
2023/04/28 09:45:02;;;;;;;4.50;4.10;;;10.10;99.90;;;;;;5064272;28;20213;-84
2023/04/28 09:47:29;;;;;;;5.07;3.57;;;10.30;99.90;;;;;;5056856;28;20218;-83
2023/04/28 09:49:56;;;;;;;4.17;2.33;;;10.60;99.90;;;;;;5059024;28;20225;-84
2023/04/28 09:52:23;;;;;;;7.83;3.83;;;10.70;99.90;;;;;;5054665;28;20627;-85
2023/04/28 09:54:53;;;;;;;4.70;3.07;;;10.70;99.90;;;;;;5057692;27;20208;-85
2023/04/28 09:57:20;;;;;;;3.27;3.07;;;10.60;99.90;;;;;;5074246;28;20217;-84
2023/04/28 09:59:50;;;;;;;4.23;2.47;;;10.60;99.90;;;;;;5063767;28;20225;-83
2023/04/28 10:02:18;;;;;;;4.73;4.30;;;10.40;99.90;;;;;;5056693;28;20208;-85
2023/04/28 10:04:49;;;;;;;3.87;3.27;;;10.30;99.90;;;;;;5057788;28;20194;-84
2023/04/28 10:07:16;;;;;;;4.07;3.77;;;10.40;99.90;;;;;;5056212;28;20772;-85
2023/04/28 10:09:46;;;;;;;4.07;3.73;;;10.40;99.90;;;;;;5054561;28;20254;-84
2023/04/28 10:12:13;;;;;;;4.20;3.80;;;10.30;99.90;;;;;;5055787;28;20226;-84
2023/04/28 10:14:44;;;;;;;6.73;3.77;;;10.10;99.90;;;;;;5053104;28;20253;-85
2023/04/28 10:17:13;;;;;;;4.57;3.03;;;10.00;99.90;;;;;;5081413;27;20186;-85
2023/04/28 10:19:51;;;;;;;8.73;3.27;;;9.80;99.90;;;;;;5071988;28;20174;-85
2023/04/28 10:22:47;;;;;;;4.20;2.70;;;9.70;99.90;;;;;;5052935;28;20232;-86
2023/04/28 10:25:36;;;;;;;5.93;3.83;;;9.80;99.90;;;;;;5056243;27;20228;-86
2023/04/28 10:28:07;;;;;;;4.80;3.07;;;9.80;99.90;;;;;;5056609;28;20580;-85
2023/04/28 10:30:33;;;;;;;3.60;3.30;;;9.90;99.90;;;;;;5055496;28;20682;-85
2023/04/28 10:33:05;;;;;;;3.73;2.67;;;9.80;99.90;;;;;;5057453;27;20294;-85
2023/04/28 10:35:31;;;;;;;8.23;4.67;;;9.90;99.90;;;;;;5053695;27;20689;-83
2023/04/28 10:38:09;;;;;;;5.23;4.40;;;9.80;99.90;;;;;;5057275;28;20200;-85
2023/04/28 10:40:37;;;;;;;5.83;3.53;;;9.80;99.90;;;;;;5056047;28;20232;-84
2023/04/28 10:43:04;;;;;;;6.27;3.17;;;9.80;99.90;;;;;;5057337;28;20275;-85
2023/04/28 10:45:51;;;;;;;6.83;3.47;;;9.80;99.90;;;;;;5054644;28;20205;-85
2023/04/28 10:48:18;;;;;;;3.87;3.33;;;9.60;99.90;;;;;;5056343;28;21152;-85
2023/04/28 10:51:06;;;;;;;4.03;3.20;;;9.50;99.90;;;;;;5055716;28;20217;-85
2023/04/28 10:53:47;;;;;;;6.53;3.43;;;9.50;99.90;;;;;;5057422;28;20224;-85
2023/04/28 10:56:18;;;;;;;3.80;3.47;;;9.30;99.90;;;;;;5055715;28;20194;-86
2023/04/28 10:58:51;;;;;;;5.10;4.07;;;9.30;99.90;;;;;;5055814;28;20170;-88
2023/04/28 11:01:19;;;;;;;4.83;4.30;;;9.30;99.90;;;;;;5056939;28;20252;-87
2023/04/28 11:04:06;;;;;;;4.47;4.00;;;9.30;99.90;;;;;;5056773;27;20210;-85
2023/04/28 11:06:39;;;;;;;5.23;4.43;;;9.50;99.90;;;;;;5057576;27;20229;-85
2023/04/28 11:09:11;;;;;;;5.20;3.70;;;9.50;99.90;;;;;;5055323;28;20722;-85
2023/04/28 11:11:38;;;;;;;5.60;3.50;;;9.50;99.90;;;;;;5055733;28;20236;-86
2023/04/28 11:14:17;;;;;;;4.97;4.20;;;9.30;99.90;;;;;;5055688;28;20208;-84
2023/04/28 11:17:06;;;;;;;2.60;2.37;;;9.30;99.90;;;;;;5054813;28;20230;-85
2023/04/28 11:19:37;;;;;;;4.00;3.17;;;9.20;99.90;;;;;;5056624;28;20213;-85
2023/04/28 11:22:17;;;;;;;4.43;3.80;;;9.30;99.90;;;;;;5054195;28;20225;-85
2023/04/28 11:24:59;;;;;;;3.43;3.00;;;9.30;99.90;;;;;;5057859;28;20221;-84
2023/04/28 11:27:29;;;;;;;3.37;3.07;;;9.30;99.90;;;;;;5055455;27;20234;-85
2023/04/28 11:29:55;;;;;;;6.50;5.67;;;9.40;99.90;;;;;;5054513;28;20222;-85
2023/04/28 11:32:31;;;;;;;7.60;3.57;;;9.50;99.90;;;;;;5053715;28;20635;-86
2023/04/28 11:34:57;;;;;;;3.07;2.40;;;9.40;99.90;;;;;;5059502;28;20566;-85
2023/04/28 11:37:24;;;;;;;6.00;3.63;;;9.30;99.90;;;;;;5057413;27;20236;-87
2023/04/28 11:39:50;;;;;;;6.40;3.90;;;9.30;99.90;;;;;;5052950;28;20246;-87
2023/04/28 11:42:16;;;;;;;12.47;4.13;;;9.40;99.90;;;;;;5084821;28;20229;-84
2023/04/28 11:44:52;;;;;;;4.90;3.83;;;9.60;99.90;;;;;;5048484;28;20250;-84
2023/04/28 11:47:38;;;;;;;6.87;4.67;;;9.70;99.90;;;;;;5049746;27;20201;-84
2023/04/28 11:50:04;;;;;;;4.23;3.83;;;9.70;99.90;;;;;;5052864;28;20206;-85
2023/04/28 11:52:30;;;;;;;5.90;4.07;;;9.70;99.90;;;;;;5046177;28;20742;-85
2023/04/28 11:54:58;;;;;;;5.70;4.00;;;9.80;99.90;;;;;;5054987;28;20217;-85
2023/04/28 11:57:27;;;;;;;8.40;3.73;;;9.70;99.90;;;;;;5070892;28;20221;-86
2023/04/28 11:59:53;;;;;;;6.50;3.93;;;9.60;99.90;;;;;;5051084;28;20602;-88
2023/04/28 12:02:27;;;;;;;8.50;4.70;;;9.50;99.90;;;;;;5051058;28;20673;-86
2023/04/28 12:04:53;;;;;;;8.47;4.23;;;9.50;99.90;;;;;;5036352;28;20185;-85
2023/04/28 12:07:19;;;;;;;6.27;3.87;;;9.50;99.90;;;;;;5048811;28;20236;-84
2023/04/28 12:10:15;;;;;;;8.63;4.53;;;9.40;99.90;;;;;;5049237;28;20228;-85
2023/04/28 12:12:41;;;;;;;5.63;4.30;;;9.40;99.90;;;;;;5070992;27;20225;-84
2023/04/28 12:15:08;;;;;;;5.70;3.97;;;9.40;99.90;;;;;;5054063;27;20283;-84
2023/04/28 12:17:35;;;;;;;6.03;3.77;;;9.40;99.90;;;;;;5049302;28;20312;-86
2023/04/28 12:20:09;;;;;;;6.43;3.90;;;9.50;99.90;;;;;;5050700;28;20189;-83
2023/04/28 12:22:46;;;;;;;6.50;4.30;;;9.50;99.90;;;;;;5049925;28;20267;-86
2023/04/28 12:25:15;;;;;;;8.10;4.77;;;9.50;99.90;;;;;;5064122;27;20609;-84
2023/04/28 12:27:47;;;;;;;8.53;4.53;;;9.50;99.90;;;;;;5048820;28;20237;-84
2023/04/28 12:30:19;;;;;;;5.07;4.37;;;9.50;99.90;;;;;;5052057;28;20682;-83
2023/04/28 12:32:45;;;;;;;6.17;3.97;;;9.50;99.90;;;;;;5049676;28;20244;-83
2023/04/28 12:35:11;;;;;;;5.63;4.90;;;9.50;99.90;;;;;;5054644;27;20310;-83
2023/04/28 12:37:37;;;;;;;8.80;5.20;;;9.50;99.90;;;;;;5051905;28;20730;-83
2023/04/28 12:40:05;;;;;;;6.77;4.90;;;9.40;99.90;;;;;;5053234;28;20224;-83
2023/04/28 12:42:31;;;;;;;4.40;4.00;;;9.50;99.90;;;;;;5044014;28;20648;-82
2023/04/28 12:44:57;;;;;;;6.67;4.97;;;9.50;99.90;;;;;;5053612;28;20756;-82
2023/04/28 12:47:23;;;;;;;8.43;3.93;;;9.60;99.90;;;;;;5053123;28;20225;-84
2023/04/28 12:49:51;;;;;;;6.97;4.20;;;9.60;99.90;;;;;;5052250;28;20642;-83
2023/04/28 12:52:18;;;;;;;6.67;5.47;;;9.60;99.90;;;;;;5051466;27;20279;-83
2023/04/28 12:54:47;;;;;;;9.53;5.47;;;9.60;99.90;;;;;;5051997;28;20742;-86
2023/04/28 12:57:17;;;;;;;6.80;5.50;;;9.60;99.90;;;;;;5043756;28;20221;-86